createdAt,value
2017-10-12T00:02:11.786Z,3.75
2017-10-12T00:04:40.073Z,5.03
2017-10-12T00:07:08.470Z,4.35
2017-10-12T00:09:36.073Z,4.70
2017-10-12T00:12:03.608Z,4.60
2017-10-12T00:14:31.140Z,4.78
2017-10-12T00:16:59.408Z,5.10
2017-10-12T00:19:27.682Z,4.12
2017-10-12T00:21:55.964Z,4.65
2017-10-12T00:24:24.287Z,4.18
2017-10-12T00:26:51.827Z,3.53
2017-10-12T00:29:19.419Z,4.00
2017-10-12T00:31:46.949Z,4.37
2017-10-12T00:34:14.453Z,4.78
2017-10-12T00:36:41.964Z,4.03
2017-10-12T00:39:09.480Z,3.42
2017-10-12T00:41:36.996Z,4.20
2017-10-12T00:44:04.538Z,3.55
2017-10-12T00:46:32.065Z,3.62
2017-10-12T00:48:59.568Z,3.87
2017-10-12T00:51:27.071Z,3.45
2017-10-12T00:53:54.574Z,4.60
2017-10-12T00:56:22.096Z,4.22
2017-10-12T00:58:49.605Z,4.37
2017-10-12T01:01:17.104Z,4.03
2017-10-12T01:03:44.620Z,4.78
2017-10-12T01:06:12.155Z,4.07
2017-10-12T01:08:39.960Z,3.80
2017-10-12T01:11:08.340Z,4.62
2017-10-12T01:13:36.062Z,4.18
2017-10-12T01:16:04.317Z,4.60
2017-10-12T01:18:31.817Z,3.65
2017-10-12T01:20:59.323Z,3.83
2017-10-12T01:23:26.826Z,4.28
2017-10-12T01:25:55.159Z,4.00
2017-10-12T01:28:22.688Z,4.15
2017-10-12T01:30:50.207Z,3.62
2017-10-12T01:33:17.718Z,3.40
2017-10-12T01:35:45.220Z,3.05
2017-10-12T01:38:13.499Z,3.75
2017-10-12T01:40:41.782Z,3.80
2017-10-12T01:43:10.051Z,3.45
2017-10-12T01:45:38.309Z,3.55
2017-10-12T01:48:06.608Z,3.42
2017-10-12T01:50:34.131Z,3.62
2017-10-12T01:53:01.627Z,3.67
2017-10-12T01:55:29.129Z,4.10
2017-10-12T01:57:56.635Z,4.20
2017-10-12T02:00:25.611Z,4.68
2017-10-12T02:02:53.345Z,3.70
2017-10-12T02:05:21.688Z,3.95
2017-10-12T02:07:50.793Z,3.67
2017-10-12T02:10:20.182Z,3.90
2017-10-12T02:12:47.715Z,3.70
2017-10-12T02:15:15.213Z,4.00
2017-10-12T02:17:42.723Z,4.45
2017-10-12T02:20:10.243Z,4.62
2017-10-12T02:22:37.739Z,3.70
2017-10-12T02:25:05.263Z,3.87
2017-10-12T02:27:32.877Z,4.57
2017-10-12T02:30:00.402Z,4.37
2017-10-12T02:32:27.903Z,4.37
2017-10-12T02:34:56.096Z,3.58
2017-10-12T02:37:25.249Z,4.47
2017-10-12T02:39:52.910Z,4.10
2017-10-12T02:42:20.536Z,3.97
2017-10-12T02:44:48.070Z,3.80
2017-10-12T02:47:15.618Z,3.60
2017-10-12T02:49:43.186Z,4.45
2017-10-12T02:52:10.694Z,4.00
2017-10-12T02:54:38.195Z,3.60
2017-10-12T02:57:06.771Z,3.42
2017-10-12T02:59:34.312Z,3.80
2017-10-12T03:02:02.796Z,4.37
2017-10-12T03:04:30.295Z,3.62
2017-10-12T03:06:58.626Z,3.20
2017-10-12T03:09:26.177Z,4.20
2017-10-12T03:11:53.687Z,4.62
2017-10-12T03:14:21.945Z,3.67
2017-10-12T03:16:49.512Z,3.78
2017-10-12T03:19:17.023Z,3.92
2017-10-12T03:21:44.518Z,2.90
2017-10-12T03:24:12.018Z,3.63
2017-10-12T03:26:39.538Z,3.40
2017-10-12T03:29:07.914Z,3.60
2017-10-12T03:31:35.436Z,3.42
2017-10-12T03:34:02.941Z,3.80
2017-10-12T03:36:30.452Z,3.30
2017-10-12T03:38:57.954Z,3.90
2017-10-12T03:41:25.463Z,3.33
2017-10-12T03:43:52.967Z,2.62
2017-10-12T03:46:20.472Z,3.60
2017-10-12T03:48:47.958Z,3.78
2017-10-12T03:51:15.471Z,3.20
2017-10-12T03:53:43.737Z,3.17
2017-10-12T03:56:12.036Z,3.40
2017-10-12T03:58:39.547Z,3.25
2017-10-12T04:01:07.056Z,3.10
2017-10-12T04:03:34.570Z,3.30
2017-10-12T04:06:02.058Z,3.40
2017-10-12T04:08:30.327Z,4.03
2017-10-12T04:10:57.826Z,3.75
2017-10-12T04:13:25.335Z,3.45
2017-10-12T04:15:52.858Z,3.03
2017-10-12T04:18:20.376Z,3.28
2017-10-12T04:20:48.648Z,2.53
2017-10-12T04:23:16.913Z,3.67
2017-10-12T04:25:44.437Z,2.83
2017-10-12T04:28:11.946Z,2.87
2017-10-12T04:30:39.480Z,2.83
2017-10-12T04:33:07.008Z,3.00
2017-10-12T04:35:34.538Z,3.40
2017-10-12T04:38:02.081Z,3.72
2017-10-12T04:40:30.372Z,3.20
2017-10-12T04:42:58.629Z,3.90
2017-10-12T04:45:26.915Z,3.10
2017-10-12T04:47:55.210Z,2.70
2017-10-12T04:50:22.735Z,3.10
2017-10-12T04:52:50.420Z,3.40
2017-10-12T04:55:17.939Z,4.10
2017-10-12T04:57:45.459Z,3.03
2017-10-12T05:00:12.959Z,3.10
2017-10-12T05:02:40.451Z,3.80
2017-10-12T05:05:07.992Z,3.50
2017-10-12T05:07:35.640Z,3.20
2017-10-12T05:10:03.130Z,3.17
2017-10-12T05:12:31.392Z,4.10
2017-10-12T05:14:58.910Z,3.45
2017-10-12T05:17:26.468Z,2.55
2017-10-12T05:19:53.950Z,3.37
2017-10-12T05:22:21.475Z,3.87
2017-10-12T05:24:48.985Z,2.92
2017-10-12T05:27:16.535Z,4.25
2017-10-12T05:29:44.061Z,3.65
2017-10-12T05:32:11.581Z,4.60
2017-10-12T05:34:39.845Z,3.03
2017-10-12T05:37:07.364Z,4.32
2017-10-12T05:39:34.879Z,4.15
2017-10-12T05:42:03.157Z,3.40
2017-10-12T05:44:31.436Z,3.50
2017-10-12T05:46:59.718Z,3.85
2017-10-12T05:49:27.212Z,4.43
2017-10-12T05:51:54.716Z,4.53
2017-10-12T05:54:22.240Z,3.47
2017-10-12T05:56:49.813Z,4.60
2017-10-12T05:59:17.344Z,3.37
2017-10-12T06:01:44.871Z,3.30
2017-10-12T06:04:13.149Z,3.62
2017-10-12T06:06:41.429Z,3.90
2017-10-12T06:09:09.686Z,3.87
2017-10-12T06:11:37.218Z,3.70
2017-10-12T06:14:04.736Z,2.90
2017-10-12T06:16:33.026Z,3.58
2017-10-12T06:19:00.540Z,3.95
2017-10-12T06:21:28.919Z,3.80
2017-10-12T06:23:56.443Z,3.10
2017-10-12T06:26:23.937Z,4.40
2017-10-12T06:28:52.240Z,3.75
2017-10-12T06:31:19.747Z,3.20
2017-10-12T06:33:47.252Z,3.40
2017-10-12T06:36:14.763Z,4.12
2017-10-12T06:38:42.276Z,4.15
2017-10-12T06:41:09.787Z,3.60
2017-10-12T06:43:37.285Z,3.62
2017-10-12T06:46:04.810Z,3.92
2017-10-12T06:48:32.332Z,3.83
2017-10-12T06:50:59.830Z,4.00
2017-10-12T06:53:27.351Z,3.83
2017-10-12T06:55:54.862Z,3.90
2017-10-12T06:58:23.150Z,3.40
2017-10-12T07:00:51.560Z,3.72
2017-10-12T07:03:19.076Z,3.42
2017-10-12T07:05:46.607Z,4.12
2017-10-12T07:08:14.132Z,4.12
2017-10-12T07:10:41.670Z,3.83
2017-10-12T07:13:09.951Z,2.33
2017-10-12T07:15:38.248Z,3.53
2017-10-12T07:18:05.767Z,2.70
2017-10-12T07:20:33.305Z,2.83
2017-10-12T07:23:00.813Z,3.60
2017-10-12T07:25:28.331Z,3.50
2017-10-12T07:27:55.886Z,3.33
2017-10-12T07:30:23.387Z,3.10
2017-10-12T07:32:51.650Z,2.90
2017-10-12T07:42:04.518Z,2.90
2017-10-12T07:44:32.023Z,3.55
2017-10-12T07:46:59.542Z,2.80
2017-10-12T07:49:27.803Z,2.75
2017-10-12T07:51:55.305Z,2.80
2017-10-12T07:54:22.824Z,1.85
2017-10-12T07:56:50.353Z,1.85
2017-10-12T07:59:18.642Z,2.03
2017-10-12T08:01:46.150Z,2.87
2017-10-12T08:04:13.658Z,3.15
2017-10-12T08:06:41.314Z,2.50
2017-10-12T08:09:08.824Z,2.95
2017-10-12T08:11:36.322Z,2.45
2017-10-12T08:14:03.829Z,2.83
2017-10-12T08:16:32.093Z,2.03
2017-10-12T08:18:59.600Z,2.80
2017-10-12T08:21:27.112Z,3.35
2017-10-12T08:23:54.623Z,2.72
2017-10-12T08:26:22.138Z,2.90
2017-10-12T08:28:50.423Z,3.15
2017-10-12T08:31:18.706Z,2.97
2017-10-12T08:33:46.207Z,2.67
2017-10-12T08:36:13.726Z,2.37
2017-10-12T08:38:41.264Z,2.67
2017-10-12T08:41:09.556Z,2.20
2017-10-12T08:43:37.849Z,2.17
2017-10-12T08:46:05.360Z,1.95
2017-10-12T08:48:32.859Z,3.67
2017-10-12T08:51:00.368Z,2.95
2017-10-12T08:53:27.896Z,3.15
2017-10-12T08:55:55.418Z,2.58
2017-10-12T08:58:22.924Z,2.70
2017-10-12T09:00:50.424Z,2.67
2017-10-12T09:03:17.954Z,2.03
2017-10-12T09:05:45.482Z,3.10
2017-10-12T09:08:12.982Z,2.12
2017-10-12T09:10:40.484Z,3.37
2017-10-12T09:13:08.766Z,2.00
2017-10-12T09:15:36.274Z,3.17
2017-10-12T09:18:03.775Z,2.05
2017-10-12T09:20:31.285Z,3.55
2017-10-12T09:22:58.900Z,3.35
2017-10-12T09:25:26.452Z,2.87
2017-10-12T09:27:54.761Z,2.85
2017-10-12T09:30:22.259Z,3.42
2017-10-12T09:32:49.783Z,2.70
2017-10-12T09:35:17.280Z,2.30
2017-10-12T09:37:44.782Z,3.03
2017-10-12T09:40:12.296Z,2.40
2017-10-12T09:42:39.816Z,2.28
2017-10-12T09:45:07.333Z,3.08
2017-10-12T09:47:35.597Z,2.85
2017-10-12T09:50:03.154Z,2.78
2017-10-12T09:52:30.665Z,2.65
2017-10-12T09:54:58.174Z,4.10
2017-10-12T09:57:25.695Z,2.80
2017-10-12T09:59:53.229Z,2.97
2017-10-12T10:02:20.744Z,2.30
2017-10-12T10:04:48.252Z,2.67
2017-10-12T10:07:15.740Z,2.80
2017-10-12T10:09:43.274Z,2.65
2017-10-12T10:12:10.808Z,2.00
2017-10-12T10:14:39.093Z,2.78
2017-10-12T10:17:07.377Z,2.50
2017-10-12T10:19:34.891Z,3.03
2017-10-12T10:22:02.414Z,2.60
2017-10-12T10:24:29.916Z,2.50
2017-10-12T10:26:57.431Z,2.35
2017-10-12T10:29:24.963Z,2.05
2017-10-12T10:31:52.467Z,2.65
2017-10-12T10:34:19.973Z,2.42
2017-10-12T10:36:48.246Z,2.40
2017-10-12T10:39:16.535Z,3.20
2017-10-12T10:41:44.807Z,3.20
2017-10-12T10:44:13.087Z,2.15
2017-10-12T10:46:41.347Z,2.45
2017-10-12T10:49:08.859Z,2.15
2017-10-12T10:51:36.367Z,2.65
2017-10-12T10:54:03.884Z,2.55
2017-10-12T10:56:31.371Z,2.40
2017-10-12T10:58:58.876Z,2.80
2017-10-12T11:01:26.405Z,3.15
2017-10-12T11:03:54.027Z,2.00
2017-10-12T11:06:21.555Z,1.73
2017-10-12T11:08:49.088Z,2.70
2017-10-12T11:11:17.366Z,2.40
2017-10-12T11:13:45.685Z,2.05
2017-10-12T11:16:13.250Z,1.80
2017-10-12T11:18:40.740Z,3.30
2017-10-12T11:21:08.243Z,2.45
2017-10-12T11:23:35.758Z,1.40
2017-10-12T11:26:03.283Z,1.98
2017-10-12T11:28:30.832Z,1.87
2017-10-12T11:30:58.344Z,2.47
2017-10-12T11:33:26.061Z,1.67
2017-10-12T11:35:53.602Z,2.47
2017-10-12T11:38:21.884Z,2.28
2017-10-12T11:40:49.425Z,1.90
2017-10-12T11:43:16.952Z,1.62
2017-10-12T11:45:44.473Z,2.75
2017-10-12T11:48:11.987Z,2.03
2017-10-12T11:50:39.529Z,1.27
2017-10-12T11:53:07.026Z,2.65
2017-10-12T11:55:35.319Z,2.53
2017-10-12T11:58:02.835Z,2.08
2017-10-12T12:00:30.423Z,2.10
2017-10-12T12:02:58.696Z,2.35
2017-10-12T12:05:26.977Z,2.47
2017-10-12T12:07:55.274Z,2.22
2017-10-12T12:10:22.784Z,2.60
2017-10-12T12:12:50.328Z,3.25
2017-10-12T12:15:17.849Z,2.42
2017-10-12T12:17:45.354Z,2.37
2017-10-12T12:20:12.864Z,2.25
2017-10-12T12:22:40.426Z,1.73
2017-10-12T12:25:07.932Z,2.30
2017-10-12T12:52:07.881Z,2.22
2017-10-12T13:19:07.671Z,2.00
2017-10-12T13:21:35.249Z,2.17
2017-10-12T13:24:02.761Z,2.85
2017-10-12T13:26:31.051Z,2.60
2017-10-12T13:28:58.784Z,2.20
2017-10-12T13:31:26.388Z,2.40
2017-10-12T13:33:53.938Z,1.80
2017-10-12T13:36:21.479Z,2.35
2017-10-12T13:38:49.749Z,2.53
2017-10-12T13:41:18.076Z,2.08
2017-10-12T13:43:45.579Z,2.58
2017-10-12T13:46:13.110Z,2.42
2017-10-12T13:48:41.423Z,4.90
2017-10-12T13:51:09.695Z,2.00
2017-10-12T13:53:37.209Z,2.20
2017-10-12T13:56:04.743Z,3.90
2017-10-12T13:58:32.271Z,2.45
2017-10-12T14:00:59.793Z,2.92
2017-10-12T14:03:27.380Z,2.33
2017-10-12T14:05:54.887Z,2.45
2017-10-12T14:08:22.420Z,3.12
2017-10-12T14:10:49.936Z,2.50
2017-10-12T14:13:17.497Z,2.80
2017-10-12T14:15:45.014Z,3.58
2017-10-12T14:18:12.560Z,3.45
2017-10-12T14:20:40.860Z,2.87
2017-10-12T14:35:23.771Z,2.58
2017-10-12T14:37:51.284Z,3.97
2017-10-12T14:40:18.788Z,1.58
2017-10-12T14:42:46.310Z,2.55
2017-10-12T14:45:14.740Z,2.58
2017-10-12T14:47:42.317Z,2.60
2017-10-12T14:50:09.840Z,2.30
2017-10-12T14:52:37.359Z,2.17
2017-10-12T14:55:04.869Z,2.05
2017-10-12T14:59:59.448Z,2.37
2017-10-12T15:02:26.986Z,2.97
2017-10-12T15:04:54.495Z,2.70
2017-10-12T15:07:21.997Z,2.80
2017-10-12T15:09:49.487Z,3.03
2017-10-12T15:12:16.993Z,3.87
2017-10-12T15:14:44.514Z,1.92
2017-10-12T15:17:12.016Z,2.40
2017-10-12T15:19:39.533Z,2.97
2017-10-12T15:22:07.041Z,2.22
2017-10-12T15:24:34.574Z,3.17
2017-10-12T15:27:02.078Z,2.62
2017-10-12T15:29:29.626Z,3.05
2017-10-12T15:31:57.434Z,2.45
2017-10-12T15:34:24.984Z,2.28
2017-10-12T15:36:52.475Z,2.75
2017-10-12T15:39:19.980Z,2.10
2017-10-12T15:41:47.479Z,1.90
2017-10-12T15:44:14.996Z,2.95
2017-10-12T15:46:42.615Z,2.45
2017-10-12T15:49:10.155Z,3.12
2017-10-12T15:51:37.659Z,2.80
2017-10-12T15:54:05.187Z,2.45
2017-10-12T15:56:32.674Z,1.90
2017-10-12T15:59:00.203Z,2.72
2017-10-12T16:01:27.765Z,2.05
2017-10-12T16:03:57.034Z,3.65
2017-10-12T16:06:24.577Z,2.53
2017-10-12T16:08:52.159Z,3.10
2017-10-12T16:11:21.384Z,3.37
2017-10-12T16:13:48.900Z,3.30
2017-10-12T16:16:16.450Z,2.75
2017-10-12T16:18:44.761Z,3.97
2017-10-12T16:21:13.044Z,1.70
2017-10-12T16:23:40.555Z,2.25
2017-10-12T16:26:08.065Z,2.75
2017-10-12T16:28:35.604Z,2.50
2017-10-12T16:31:03.890Z,2.55
2017-10-12T16:33:32.512Z,2.30
2017-10-12T16:36:00.027Z,2.30
2017-10-12T16:38:28.298Z,2.45
2017-10-12T16:40:56.585Z,2.95
2017-10-12T16:43:24.865Z,2.20
2017-10-12T16:45:53.126Z,1.80
2017-10-12T16:48:21.425Z,2.60
2017-10-12T16:53:17.216Z,2.53
2017-10-12T16:55:44.777Z,2.12
2017-10-12T16:58:12.273Z,1.90
2017-10-12T17:00:40.655Z,2.85
2017-10-12T17:03:08.941Z,1.92
2017-10-12T17:05:36.493Z,1.73
2017-10-12T17:10:32.333Z,1.87
2017-10-12T17:12:59.857Z,3.78
2017-10-12T17:15:27.364Z,4.15
2017-10-12T17:17:54.926Z,2.40
2017-10-12T17:20:22.621Z,2.47
2017-10-12T17:22:50.158Z,2.60
2017-10-12T17:25:17.965Z,2.35
2017-10-12T17:27:45.487Z,2.30
2017-10-12T17:30:13.084Z,3.20
2017-10-12T17:32:40.648Z,2.55
2017-10-12T17:35:08.156Z,2.25
2017-10-12T17:37:35.703Z,2.53
2017-10-12T17:40:03.246Z,3.53
2017-10-12T17:42:30.789Z,2.17
2017-10-12T17:44:58.332Z,2.37
2017-10-12T17:47:25.860Z,2.03
2017-10-12T17:49:53.778Z,2.83
2017-10-12T17:52:21.323Z,2.55
2017-10-12T17:54:49.788Z,2.70
2017-10-12T17:57:17.316Z,2.70
2017-10-12T17:59:44.847Z,3.78
2017-10-12T18:02:13.191Z,2.67
2017-10-12T18:07:08.267Z,2.05
2017-10-12T18:09:35.781Z,2.78
2017-10-12T18:14:30.853Z,3.60
2017-10-12T18:16:58.362Z,2.65
2017-10-12T18:21:53.600Z,2.50
2017-10-12T18:24:21.208Z,2.95
2017-10-12T18:26:48.707Z,2.80
2017-10-12T18:29:16.225Z,2.55
2017-10-12T18:31:43.719Z,3.40
2017-10-12T18:34:11.273Z,2.85
2017-10-12T18:36:38.768Z,3.60
2017-10-12T18:39:07.215Z,3.30
2017-10-12T18:41:34.848Z,3.22
2017-10-12T18:44:02.373Z,2.35
2017-10-12T18:46:30.634Z,2.45
2017-10-12T18:48:58.930Z,3.00
2017-10-12T18:51:27.259Z,3.10
2017-10-12T18:53:54.777Z,2.47
2017-10-12T18:56:22.371Z,4.40
2017-10-12T18:58:49.969Z,3.12
2017-10-12T19:01:17.501Z,3.90
2017-10-12T19:03:45.051Z,3.60
2017-10-12T19:06:12.590Z,2.90
2017-10-12T19:08:40.188Z,2.60
2017-10-12T19:11:07.830Z,3.10
2017-10-12T19:13:35.390Z,2.50
2017-10-12T19:16:02.964Z,3.53
2017-10-12T19:18:30.519Z,3.35
2017-10-12T19:20:58.106Z,2.87
2017-10-12T19:23:25.791Z,3.30
2017-10-12T19:25:54.064Z,3.50
